(°C)
-1°
-2°
-3°
-4°
-4°
(°C)
-1°
-3°
-4°
-6°
-7°
-8°
-8°
ЮЗ
ЗЮЗ
ЗЮЗ
ЗЮЗ
ЗЮЗ
ЗЮЗ
ЗЮЗ
(км/ч)
4-6
3-7
2-8
3-8
4-10
4-12
4-13
(мм)
0
0
0
0
0
0
0
(%)
0
0
0
0
0
0
0

Высота солнцестояния

/ 5.8°
sun-icon
UV 1
07:40
16:27
Убывающая луна (348°)
06:27
15:45

METAR для Тироль (LOWI)

Время Условия Температура/
Точка росы
Ветер Видимость Погода Облачность Давление Изменить Необработанный
VFR 2°C / -5°C 220º variable 180º to 270º 3kt >10km - Few Clouds 4500ft 1014 No Significant change LOWI 031420Z 22003KT 180V270 9999 FEW045 02/M05 Q1014 NOSIG
VFR 4°C / -5°C 170º 3kt >10km - Few Clouds 4000ft 1014 No Significant change LOWI 031350Z 17003KT 9999 FEW040 04/M05 Q1014 NOSIG
VFR 3°C / -6°C 130º variable 090º to 170º 3kt >10km - Few Clouds 3500ft 1014 No Significant change LOWI 031320Z 13003KT 090V170 9999 FEW035 03/M06 Q1014 NOSIG
VFR 4°C / -8°C 260º variable 200º to 330º 3kt >10km - Few Clouds 3500ft 1014 No Significant change LOWI 031250Z 26003KT 200V330 9999 FEW035 04/M08 Q1014 NOSIG
VFR 4°C / -7°C variable 2kt >10km - Few Clouds 3500ft 1014 No Significant change LOWI 031220Z VRB02KT 9999 FEW035 04/M07 Q1014 NOSIG
VFR 3°C / -7°C variable 2kt >10km - Few Clouds 2000ft
Scattered Clouds 5500ft
1014 No Significant change LOWI 031150Z VRB02KT 9999 FEW020 SCT055 03/M07 Q1014 NOSIG
VFR 3°C / -3°C variable 1kt >10km - Few Clouds 2000ft
Scattered Clouds 5500ft
1014 No Significant change LOWI 031120Z VRB01KT 9999 FEW020 SCT055 03/M03 Q1014 NOSIG
VFR 3°C / -4°C 240º variable 190º to 290º 4kt >10km - Few Clouds 2000ft
Scattered Clouds 5500ft
1014 No Significant change LOWI 031050Z 24004KT 190V290 9999 FEW020 SCT055 03/M04 Q1014 NOSIG
VFR 2°C / -2°C 260º 4kt >10km - Few Clouds 900ft
Scattered Clouds 5500ft
1015 No Significant change LOWI 031020Z 26004KT 9999 FEW009 SCT055 02/M02 Q1015 NOSIG
VFR 2°C / -2°C variable 2kt >10km - Few Clouds 900ft
Scattered Clouds 4500ft
1015 No Significant change LOWI 030950Z VRB02KT 9999 FEW009 SCT045 02/M02 Q1015 NOSIG
VFR 2°C / -1°C variable 2kt >10km - Few Clouds 900ft
Scattered Clouds 4500ft
1015 No Significant change LOWI 030920Z VRB02KT 9999 FEW009 SCT045 02/M01 Q1015 NOSIG
VFR 1°C / -2°C variable 1kt >10km - Few Clouds 900ft
Scattered Clouds 4000ft
1015 No Significant change LOWI 030850Z VRB01KT 9999 FEW009 SCT040 01/M02 Q1015 NOSIG
VFR 1°C / -2°C 100º variable 070º to 130º 3kt >10km - Few Clouds 900ft
Scattered Clouds 4500ft
1015 No Significant change LOWI 030820Z 10003KT 070V130 9999 FEW009 SCT045 01/M02 Q1015 NOSIG
VFR 0°C / -2°C variable 2kt >10km - Few Clouds 400ft
Scattered Clouds 1100ft
Broken Clouds 3300ft
1014 No Significant change LOWI 030750Z VRB02KT 9999 FEW004 SCT011 BKN033 00/M02 Q1014 NOSIG
VFR 0°C / -2°C 70º variable 040º to 100º 4kt >10km - Few Clouds 400ft
Scattered Clouds 1100ft
Broken Clouds 3300ft
1014 No Significant change LOWI 030720Z 07004KT 040V100 9999 FEW004 SCT011 BKN033 M00/M02 Q1014 NOSIG
MVFR -1°C / -2°C 60º 4kt >10km - Few Clouds 400ft
Scattered Clouds 1100ft
Broken Clouds 2500ft
1013 No Significant change LOWI 030650Z 06004KT 9999 FEW004 SCT011 BKN025 M01/M02 Q1013 NOSIG
VFR 0°C / -2°C 80º 4kt >10km Light Snow 1.00mm precipitation Vertical Visibility of 0ft.
Scattered Clouds 1200ft
Broken Clouds 4500ft
1013 No Significant change LOWI 030620Z 08004KT 9999 -SN FEW004 SCT012 BKN045 M00/M02 Q1013 NOSIG
VFR 0°C / -2°C variable 2kt >10km Light Snow 1.00mm precipitation Vertical Visibility of 0ft.
Scattered Clouds 1200ft
Broken Clouds 4500ft
1012 No Significant change LOWI 030550Z VRB02KT 9999 -SN FEW004 SCT012 BKN045 M00/M02 Q1012 NOSIG
VFR 0°C / -1°C 270º 2kt >10km Light Showers Snow 3.00mm precipitation Vertical Visibility of 0ft.
Scattered Clouds 1200ft
Broken Clouds 4500ft
1012 No Significant change LOWI 030520Z 27002KT 9999 -SHSN FEW004 SCT012 BKN045 00/M01 Q1012 NOSIG
VFR 0°C / -1°C variable 1kt >10km - Few Clouds 400ft
Scattered Clouds 1200ft
Broken Clouds 4500ft
1011 No Significant change LOWI 030450Z VRB01KT 9999 FEW004 SCT012 BKN045 00/M01 Q1011 NOSIG
VFR 0°C / -1°C 300º 4kt >10km - Few Clouds 700ft
Scattered Clouds 3400ft
Broken Clouds 4800ft
1011 - LOWI 030420Z AUTO 30004KT 9999 FEW007 SCT034 BKN048 00/M01 Q1011
VFR 0°C / -1°C 260º 3kt >10km - Few Clouds 600ft
Scattered Clouds 3200ft
Broken Clouds 6000ft
1011 - LOWI 030350Z AUTO 26003KT 9999 FEW006 SCT032 BKN060 00/M01 Q1011
MVFR 1°C / -1°C variable 1kt >10km - Few Clouds 400ft
Broken Clouds 2600ft
1010 - LOWI 030320Z AUTO VRB01KT 9999 FEW004 BKN026 01/M01 Q1010
VFR 1°C / -1°C 70º variable 020º to 110º 3kt >10km Light Snow 1.00mm precipitation Vertical Visibility of 0ft.
Scattered Clouds 2000ft
Broken Clouds 5000ft
1010 - LOWI 030250Z AUTO 07003KT 020V110 9999 -SN FEW006 SCT020 BKN050 01/M01 Q1010

VFR

2°C / -5°C

[Больше]
Ветер 220º variable 180º to 270º 3kt
Видимость >10km
Погода -
Облачность Few Clouds 4500ft
Давление 1014
Изменить No Significant change
Необработанный LOWI 031420Z 22003KT 180V270 9999 FEW045 02/M05 Q1014 NOSIG

VFR

4°C / -5°C

[Больше]
Ветер 170º 3kt
Видимость >10km
Погода -
Облачность Few Clouds 4000ft
Давление 1014
Изменить No Significant change
Необработанный LOWI 031350Z 17003KT 9999 FEW040 04/M05 Q1014 NOSIG

VFR

3°C / -6°C

[Больше]
Ветер 130º variable 090º to 170º 3kt
Видимость >10km
Погода -
Облачность Few Clouds 3500ft
Давление 1014
Изменить No Significant change
Необработанный LOWI 031320Z 13003KT 090V170 9999 FEW035 03/M06 Q1014 NOSIG

VFR

4°C / -8°C

[Больше]
Ветер 260º variable 200º to 330º 3kt
Видимость >10km
Погода -
Облачность Few Clouds 3500ft
Давление 1014
Изменить No Significant change
Необработанный LOWI 031250Z 26003KT 200V330 9999 FEW035 04/M08 Q1014 NOSIG

VFR

4°C / -7°C

[Больше]
Ветер variable 2kt
Видимость >10km
Погода -
Облачность Few Clouds 3500ft
Давление 1014
Изменить No Significant change
Необработанный LOWI 031220Z VRB02KT 9999 FEW035 04/M07 Q1014 NOSIG

VFR

3°C / -7°C

[Больше]
Ветер variable 2kt
Видимость >10km
Погода -
Облачность Few Clouds 2000ft
Scattered Clouds 5500ft
Давление 1014
Изменить No Significant change
Необработанный LOWI 031150Z VRB02KT 9999 FEW020 SCT055 03/M07 Q1014 NOSIG

VFR

3°C / -3°C

[Больше]
Ветер variable 1kt
Видимость >10km
Погода -
Облачность Few Clouds 2000ft
Scattered Clouds 5500ft
Давление 1014
Изменить No Significant change
Необработанный LOWI 031120Z VRB01KT 9999 FEW020 SCT055 03/M03 Q1014 NOSIG

VFR

3°C / -4°C

[Больше]
Ветер 240º variable 190º to 290º 4kt
Видимость >10km
Погода -
Облачность Few Clouds 2000ft
Scattered Clouds 5500ft
Давление 1014
Изменить No Significant change
Необработанный LOWI 031050Z 24004KT 190V290 9999 FEW020 SCT055 03/M04 Q1014 NOSIG

VFR

2°C / -2°C

[Больше]
Ветер 260º 4kt
Видимость >10km
Погода -
Облачность Few Clouds 900ft
Scattered Clouds 5500ft
Давление 1015
Изменить No Significant change
Необработанный LOWI 031020Z 26004KT 9999 FEW009 SCT055 02/M02 Q1015 NOSIG

VFR

2°C / -2°C

[Больше]
Ветер variable 2kt
Видимость >10km
Погода -
Облачность Few Clouds 900ft
Scattered Clouds 4500ft
Давление 1015
Изменить No Significant change
Необработанный LOWI 030950Z VRB02KT 9999 FEW009 SCT045 02/M02 Q1015 NOSIG

VFR

2°C / -1°C

[Больше]
Ветер variable 2kt
Видимость >10km
Погода -
Облачность Few Clouds 900ft
Scattered Clouds 4500ft
Давление 1015
Изменить No Significant change
Необработанный LOWI 030920Z VRB02KT 9999 FEW009 SCT045 02/M01 Q1015 NOSIG

VFR

1°C / -2°C

[Больше]
Ветер variable 1kt
Видимость >10km
Погода -
Облачность Few Clouds 900ft
Scattered Clouds 4000ft
Давление 1015
Изменить No Significant change
Необработанный LOWI 030850Z VRB01KT 9999 FEW009 SCT040 01/M02 Q1015 NOSIG

VFR

1°C / -2°C

[Больше]
Ветер 100º variable 070º to 130º 3kt
Видимость >10km
Погода -
Облачность Few Clouds 900ft
Scattered Clouds 4500ft
Давление 1015
Изменить No Significant change
Необработанный LOWI 030820Z 10003KT 070V130 9999 FEW009 SCT045 01/M02 Q1015 NOSIG

VFR

0°C / -2°C

[Больше]
Ветер variable 2kt
Видимость >10km
Погода -
Облачность Few Clouds 400ft
Scattered Clouds 1100ft
Broken Clouds 3300ft
Давление 1014
Изменить No Significant change
Необработанный LOWI 030750Z VRB02KT 9999 FEW004 SCT011 BKN033 00/M02 Q1014 NOSIG

VFR

0°C / -2°C

[Больше]
Ветер 70º variable 040º to 100º 4kt
Видимость >10km
Погода -
Облачность Few Clouds 400ft
Scattered Clouds 1100ft
Broken Clouds 3300ft
Давление 1014
Изменить No Significant change
Необработанный LOWI 030720Z 07004KT 040V100 9999 FEW004 SCT011 BKN033 M00/M02 Q1014 NOSIG

MVFR

-1°C / -2°C

[Больше]
Ветер 60º 4kt
Видимость >10km
Погода -
Облачность Few Clouds 400ft
Scattered Clouds 1100ft
Broken Clouds 2500ft
Давление 1013
Изменить No Significant change
Необработанный LOWI 030650Z 06004KT 9999 FEW004 SCT011 BKN025 M01/M02 Q1013 NOSIG

VFR

0°C / -2°C

[Больше]
Ветер 80º 4kt
Видимость >10km
Погода Light Snow 1.00mm precipitation
Облачность Vertical Visibility of 0ft.
Scattered Clouds 1200ft
Broken Clouds 4500ft
Давление 1013
Изменить No Significant change
Необработанный LOWI 030620Z 08004KT 9999 -SN FEW004 SCT012 BKN045 M00/M02 Q1013 NOSIG

VFR

0°C / -2°C

[Больше]
Ветер variable 2kt
Видимость >10km
Погода Light Snow 1.00mm precipitation
Облачность Vertical Visibility of 0ft.
Scattered Clouds 1200ft
Broken Clouds 4500ft
Давление 1012
Изменить No Significant change
Необработанный LOWI 030550Z VRB02KT 9999 -SN FEW004 SCT012 BKN045 M00/M02 Q1012 NOSIG

VFR

0°C / -1°C

[Больше]
Ветер 270º 2kt
Видимость >10km
Погода Light Showers Snow 3.00mm precipitation
Облачность Vertical Visibility of 0ft.
Scattered Clouds 1200ft
Broken Clouds 4500ft
Давление 1012
Изменить No Significant change
Необработанный LOWI 030520Z 27002KT 9999 -SHSN FEW004 SCT012 BKN045 00/M01 Q1012 NOSIG

VFR

0°C / -1°C

[Больше]
Ветер variable 1kt
Видимость >10km
Погода -
Облачность Few Clouds 400ft
Scattered Clouds 1200ft
Broken Clouds 4500ft
Давление 1011
Изменить No Significant change
Необработанный LOWI 030450Z VRB01KT 9999 FEW004 SCT012 BKN045 00/M01 Q1011 NOSIG

VFR

0°C / -1°C

[Больше]
Ветер 300º 4kt
Видимость >10km
Погода -
Облачность Few Clouds 700ft
Scattered Clouds 3400ft
Broken Clouds 4800ft
Давление 1011
Изменить -
Необработанный LOWI 030420Z AUTO 30004KT 9999 FEW007 SCT034 BKN048 00/M01 Q1011

VFR

0°C / -1°C

[Больше]
Ветер 260º 3kt
Видимость >10km
Погода -
Облачность Few Clouds 600ft
Scattered Clouds 3200ft
Broken Clouds 6000ft
Давление 1011
Изменить -
Необработанный LOWI 030350Z AUTO 26003KT 9999 FEW006 SCT032 BKN060 00/M01 Q1011

MVFR

1°C / -1°C

[Больше]
Ветер variable 1kt
Видимость >10km
Погода -
Облачность Few Clouds 400ft
Broken Clouds 2600ft
Давление 1010
Изменить -
Необработанный LOWI 030320Z AUTO VRB01KT 9999 FEW004 BKN026 01/M01 Q1010

VFR

1°C / -1°C

[Больше]
Ветер 70º variable 020º to 110º 3kt
Видимость >10km
Погода Light Snow 1.00mm precipitation
Облачность Vertical Visibility of 0ft.
Scattered Clouds 2000ft
Broken Clouds 5000ft
Давление 1010
Изменить -
Необработанный LOWI 030250Z AUTO 07003KT 020V110 9999 -SN FEW006 SCT020 BKN050 01/M01 Q1010

TAF для Тироль (LOWI)

From till


Maximum Temperature 3ºC on . Minimum Temperature -3ºC on .
From till Wind variable 2kt. Visibility 10km or more. Few Clouds 4000ft.
Becoming from till Wind 270º 8kt. Visibility 10km or more. Few Clouds 4000ft.

Необработанный: TAF LOWI 031115Z 0312/0412 VRB02KT 9999 FEW040 TX03/0412Z TNM03/0321Z BECMG 0322/0324 27008KT

Радар Тироль

Морось
Незначительные
Умеренные
Сильные
Очень Сильные
Град

Индикатор местности находится на Тироль. Анимация показывает радар осадков за последний час, а также прогноз погоды для 2h. Морось или небольшой снег могут быть невидимы для радара. Интенсивность осадков имеет цветовую кодировку - от светло-голубого до оранжевого.
Copyright 2021 Deutscher Wetterdienst / meteoblue.

Текущие спутниковые изображения и снимки дождя для Тироль, Австрия

Указатель местности находится на Тироль. [Больше]

Спутниковое изображение в реальном времени сочетает в себе видимый свет в дневное время с инфракрасным излучением в ночное время. Ночью изображение получается не темным, так как инфракрасное излучение может обнаружить разницу температур. К сожалению, низкие облака и туман трудно отличить от температуры у поверхности земли и поэтому могут быть почти незаметны ночью. Спутниковые снимки Meteosat для Европы обновляются каждые 5 минут в режиме реального времени.Снимки GOES-16/GOES-17 (Северная и Южная Америка) и Химавари (Азия) обновляются каждые 10 минут.

Вероятность осадков оценивается по данным радиолокаторов и спутников. Спутниковые данные о возможности осадков в ночное время менее точные, чем дневные данные. Оранжевыми крестами отмечаются места,где обнаруживается молния (болееЕвропа).

Копирайт 2021 EUMETSAT / meteoblue. Данные о молниях предоставляются со стороны nowcast.